sensor_id;sensor_type;location;lat;lon;timestamp;temperature;humidity
43607;DHT22;29197;44.788;10.366;2023-02-28T00:00:33;7.60;99.90
43607;DHT22;29197;44.788;10.366;2023-02-28T00:03:21;7.50;99.90
43607;DHT22;29197;44.788;10.366;2023-02-28T00:06:10;7.50;99.90
43607;DHT22;29197;44.788;10.366;2023-02-28T00:08:58;7.30;99.90
43607;DHT22;29197;44.788;10.366;2023-02-28T00:11:47;7.40;99.90
43607;DHT22;29197;44.788;10.366;2023-02-28T00:14:37;7.50;99.90
43607;DHT22;29197;44.788;10.366;2023-02-28T00:17:25;7.70;99.90
43607;DHT22;29197;44.788;10.366;2023-02-28T00:20:14;7.60;99.90
43607;DHT22;29197;44.788;10.366;2023-02-28T00:23:02;7.60;99.90
43607;DHT22;29197;44.788;10.366;2023-02-28T00:25:51;7.50;99.90
43607;DHT22;29197;44.788;10.366;2023-02-28T00:28:40;7.50;99.90
43607;DHT22;29197;44.788;10.366;2023-02-28T00:31:30;7.70;99.90
43607;DHT22;29197;44.788;10.366;2023-02-28T00:34:18;7.60;99.90
43607;DHT22;29197;44.788;10.366;2023-02-28T00:37:08;7.30;99.90
43607;DHT22;29197;44.788;10.366;2023-02-28T00:39:57;7.20;99.90
43607;DHT22;29197;44.788;10.366;2023-02-28T00:42:46;7.50;99.90
43607;DHT22;29197;44.788;10.366;2023-02-28T00:45:34;7.40;99.90
43607;DHT22;29197;44.788;10.366;2023-02-28T00:48:24;7.50;99.90
43607;DHT22;29197;44.788;10.366;2023-02-28T00:51:12;7.50;99.90
43607;DHT22;29197;44.788;10.366;2023-02-28T00:54:01;7.60;99.90
43607;DHT22;29197;44.788;10.366;2023-02-28T00:56:50;7.70;99.90
43607;DHT22;29197;44.788;10.366;2023-02-28T00:59:38;7.90;99.90
43607;DHT22;29197;44.788;10.366;2023-02-28T01:02:27;7.90;99.90
43607;DHT22;29197;44.788;10.366;2023-02-28T01:05:17;7.90;99.90
43607;DHT22;29197;44.788;10.366;2023-02-28T01:08:05;8.00;99.90
43607;DHT22;29197;44.788;10.366;2023-02-28T01:10:54;8.00;99.90
43607;DHT22;29197;44.788;10.366;2023-02-28T01:13:43;8.00;99.90
43607;DHT22;29197;44.788;10.366;2023-02-28T01:16:32;8.10;99.90
43607;DHT22;29197;44.788;10.366;2023-02-28T01:19:20;8.10;99.90
43607;DHT22;29197;44.788;10.366;2023-02-28T01:22:10;8.10;99.90
43607;DHT22;29197;44.788;10.366;2023-02-28T01:24:58;8.10;99.90
43607;DHT22;29197;44.788;10.366;2023-02-28T01:27:47;8.10;99.90
43607;DHT22;29197;44.788;10.366;2023-02-28T01:30:35;8.10;99.90
43607;DHT22;29197;44.788;10.366;2023-02-28T01:33:24;8.10;99.90
43607;DHT22;29197;44.788;10.366;2023-02-28T01:36:14;8.10;99.90
43607;DHT22;29197;44.788;10.366;2023-02-28T01:39:04;8.10;99.90
43607;DHT22;29197;44.788;10.366;2023-02-28T01:41:53;8.20;99.90
43607;DHT22;29197;44.788;10.366;2023-02-28T01:45:10;8.20;99.90
43607;DHT22;29197;44.788;10.366;2023-02-28T01:48:07;8.30;99.90
43607;DHT22;29197;44.788;10.366;2023-02-28T01:50:59;8.30;99.90
43607;DHT22;29197;44.788;10.366;2023-02-28T01:53:54;8.30;99.90
43607;DHT22;29197;44.788;10.366;2023-02-28T01:56:48;8.30;99.90
43607;DHT22;29197;44.788;10.366;2023-02-28T01:59:42;8.40;99.90
43607;DHT22;29197;44.788;10.366;2023-02-28T02:02:34;8.40;99.90
43607;DHT22;29197;44.788;10.366;2023-02-28T02:05:24;8.40;99.90
43607;DHT22;29197;44.788;10.366;2023-02-28T02:08:29;8.50;99.90
43607;DHT22;29197;44.788;10.366;2023-02-28T02:11:28;8.40;99.90
43607;DHT22;29197;44.788;10.366;2023-02-28T02:14:42;8.40;99.90
43607;DHT22;29197;44.788;10.366;2023-02-28T02:17:36;8.40;99.90
43607;DHT22;29197;44.788;10.366;2023-02-28T02:20:51;8.40;99.90
43607;DHT22;29197;44.788;10.366;2023-02-28T02:27:23;8.30;99.90
43607;DHT22;29197;44.788;10.366;2023-02-28T02:37:13;8.40;99.90
43607;DHT22;29197;44.788;10.366;2023-02-28T02:40:09;8.40;99.90
43607;DHT22;29197;44.788;10.366;2023-02-28T02:43:02;8.40;99.90
43607;DHT22;29197;44.788;10.366;2023-02-28T02:45:55;8.40;99.90
43607;DHT22;29197;44.788;10.366;2023-02-28T02:48:46;8.40;99.90
43607;DHT22;29197;44.788;10.366;2023-02-28T02:51:35;8.40;99.90
43607;DHT22;29197;44.788;10.366;2023-02-28T02:54:28;8.40;99.90
43607;DHT22;29197;44.788;10.366;2023-02-28T02:57:22;8.40;99.90
43607;DHT22;29197;44.788;10.366;2023-02-28T03:00:14;8.40;99.90
43607;DHT22;29197;44.788;10.366;2023-02-28T03:03:04;8.40;99.90
43607;DHT22;29197;44.788;10.366;2023-02-28T03:05:55;8.40;99.90
43607;DHT22;29197;44.788;10.366;2023-02-28T03:08:44;8.30;99.90
43607;DHT22;29197;44.788;10.366;2023-02-28T03:11:35;8.30;99.90
43607;DHT22;29197;44.788;10.366;2023-02-28T03:14:40;8.30;99.90
43607;DHT22;29197;44.788;10.366;2023-02-28T03:17:53;8.30;99.90
43607;DHT22;29197;44.788;10.366;2023-02-28T03:20:54;8.20;99.90
43607;DHT22;29197;44.788;10.366;2023-02-28T03:23:54;8.10;99.90
43607;DHT22;29197;44.788;10.366;2023-02-28T03:26:54;8.10;99.90
43607;DHT22;29197;44.788;10.366;2023-02-28T03:29:51;8.10;99.90
43607;DHT22;29197;44.788;10.366;2023-02-28T03:32:47;8.10;99.90
43607;DHT22;29197;44.788;10.366;2023-02-28T03:35:41;8.10;99.90
43607;DHT22;29197;44.788;10.366;2023-02-28T03:38:35;8.00;99.90
43607;DHT22;29197;44.788;10.366;2023-02-28T03:41:30;8.00;99.90
43607;DHT22;29197;44.788;10.366;2023-02-28T03:44:24;8.00;99.90
43607;DHT22;29197;44.788;10.366;2023-02-28T03:47:16;8.00;99.90
43607;DHT22;29197;44.788;10.366;2023-02-28T03:50:08;8.10;99.90
43607;DHT22;29197;44.788;10.366;2023-02-28T03:53:02;8.10;99.90
43607;DHT22;29197;44.788;10.366;2023-02-28T03:55:54;8.20;99.90
43607;DHT22;29197;44.788;10.366;2023-02-28T03:58:47;8.10;99.90
43607;DHT22;29197;44.788;10.366;2023-02-28T04:01:40;8.00;99.90
43607;DHT22;29197;44.788;10.366;2023-02-28T04:04:29;8.00;99.90
43607;DHT22;29197;44.788;10.366;2023-02-28T04:07:18;8.10;99.90
43607;DHT22;29197;44.788;10.366;2023-02-28T04:10:08;8.20;99.90
43607;DHT22;29197;44.788;10.366;2023-02-28T04:12:56;7.80;99.90
43607;DHT22;29197;44.788;10.366;2023-02-28T04:15:45;7.80;99.90
43607;DHT22;29197;44.788;10.366;2023-02-28T04:18:35;7.90;99.90
43607;DHT22;29197;44.788;10.366;2023-02-28T04:21:23;7.90;99.90
43607;DHT22;29197;44.788;10.366;2023-02-28T04:24:15;7.90;99.90
43607;DHT22;29197;44.788;10.366;2023-02-28T04:27:04;8.00;99.90
43607;DHT22;29197;44.788;10.366;2023-02-28T04:29:52;8.10;99.90
43607;DHT22;29197;44.788;10.366;2023-02-28T04:32:40;8.00;99.90
43607;DHT22;29197;44.788;10.366;2023-02-28T04:35:30;8.10;99.90
43607;DHT22;29197;44.788;10.366;2023-02-28T04:38:19;8.10;99.90
43607;DHT22;29197;44.788;10.366;2023-02-28T04:41:07;8.10;99.90
43607;DHT22;29197;44.788;10.366;2023-02-28T04:43:56;8.00;99.90
43607;DHT22;29197;44.788;10.366;2023-02-28T04:46:44;8.00;99.90
43607;DHT22;29197;44.788;10.366;2023-02-28T04:49:33;8.00;99.90
43607;DHT22;29197;44.788;10.366;2023-02-28T04:52:23;7.90;99.90
43607;DHT22;29197;44.788;10.366;2023-02-28T04:55:11;7.90;99.90
43607;DHT22;29197;44.788;10.366;2023-02-28T04:58:00;8.00;99.90
43607;DHT22;29197;44.788;10.366;2023-02-28T05:00:48;7.90;99.90
43607;DHT22;29197;44.788;10.366;2023-02-28T05:03:37;8.00;99.90
43607;DHT22;29197;44.788;10.366;2023-02-28T05:06:27;8.00;99.90
43607;DHT22;29197;44.788;10.366;2023-02-28T05:09:18;7.90;99.90
43607;DHT22;29197;44.788;10.366;2023-02-28T05:12:07;7.90;99.90
43607;DHT22;29197;44.788;10.366;2023-02-28T05:14:56;8.00;99.90
43607;DHT22;29197;44.788;10.366;2023-02-28T05:17:45;8.10;99.90
43607;DHT22;29197;44.788;10.366;2023-02-28T05:20:33;8.10;99.90
43607;DHT22;29197;44.788;10.366;2023-02-28T05:23:22;8.00;99.90
43607;DHT22;29197;44.788;10.366;2023-02-28T05:26:12;8.00;99.90
43607;DHT22;29197;44.788;10.366;2023-02-28T05:29:01;7.90;99.90
43607;DHT22;29197;44.788;10.366;2023-02-28T05:31:49;7.90;99.90
43607;DHT22;29197;44.788;10.366;2023-02-28T05:34:39;7.90;99.90
43607;DHT22;29197;44.788;10.366;2023-02-28T05:37:27;8.00;99.90
43607;DHT22;29197;44.788;10.366;2023-02-28T05:40:16;7.90;99.90
43607;DHT22;29197;44.788;10.366;2023-02-28T05:43:10;7.90;99.90
43607;DHT22;29197;44.788;10.366;2023-02-28T05:46:02;7.70;99.90
43607;DHT22;29197;44.788;10.366;2023-02-28T05:48:51;7.60;99.90
43607;DHT22;29197;44.788;10.366;2023-02-28T05:51:39;7.70;99.90
43607;DHT22;29197;44.788;10.366;2023-02-28T05:54:28;7.70;99.90
43607;DHT22;29197;44.788;10.366;2023-02-28T05:57:16;7.70;99.90
43607;DHT22;29197;44.788;10.366;2023-02-28T06:00:13;7.40;99.90
43607;DHT22;29197;44.788;10.366;2023-02-28T06:03:04;7.50;99.90
43607;DHT22;29197;44.788;10.366;2023-02-28T06:08:42;7.40;99.90
43607;DHT22;29197;44.788;10.366;2023-02-28T06:11:32;7.20;99.90
43607;DHT22;29197;44.788;10.366;2023-02-28T06:14:20;6.90;99.90
43607;DHT22;29197;44.788;10.366;2023-02-28T06:17:10;6.70;99.90
43607;DHT22;29197;44.788;10.366;2023-02-28T06:19:59;6.70;99.90
43607;DHT22;29197;44.788;10.366;2023-02-28T06:22:47;6.70;99.90
43607;DHT22;29197;44.788;10.366;2023-02-28T06:25:37;6.40;99.90
43607;DHT22;29197;44.788;10.366;2023-02-28T06:28:26;6.20;99.90
43607;DHT22;29197;44.788;10.366;2023-02-28T06:31:15;6.00;99.90
43607;DHT22;29197;44.788;10.366;2023-02-28T06:34:06;6.00;99.90
43607;DHT22;29197;44.788;10.366;2023-02-28T06:39:44;5.80;99.90
43607;DHT22;29197;44.788;10.366;2023-02-28T06:42:32;5.90;99.90
43607;DHT22;29197;44.788;10.366;2023-02-28T06:45:21;5.90;99.90
43607;DHT22;29197;44.788;10.366;2023-02-28T06:48:09;5.80;99.90
43607;DHT22;29197;44.788;10.366;2023-02-28T06:51:04;5.90;99.90
43607;DHT22;29197;44.788;10.366;2023-02-28T06:53:53;6.00;99.90
43607;DHT22;29197;44.788;10.366;2023-02-28T06:56:41;5.90;99.90
43607;DHT22;29197;44.788;10.366;2023-02-28T06:59:30;6.00;99.90
43607;DHT22;29197;44.788;10.366;2023-02-28T07:02:19;6.10;99.90
43607;DHT22;29197;44.788;10.366;2023-02-28T07:05:08;6.10;99.90
43607;DHT22;29197;44.788;10.366;2023-02-28T07:07:58;5.90;99.90
43607;DHT22;29197;44.788;10.366;2023-02-28T07:10:46;6.10;99.90
43607;DHT22;29197;44.788;10.366;2023-02-28T07:13:35;5.80;99.90
43607;DHT22;29197;44.788;10.366;2023-02-28T07:16:24;5.90;99.90
43607;DHT22;29197;44.788;10.366;2023-02-28T07:19:13;6.00;99.90
43607;DHT22;29197;44.788;10.366;2023-02-28T07:22:02;6.20;99.90
43607;DHT22;29197;44.788;10.366;2023-02-28T07:24:51;6.40;99.90
43607;DHT22;29197;44.788;10.366;2023-02-28T07:27:40;6.60;99.90
43607;DHT22;29197;44.788;10.366;2023-02-28T07:30:28;6.60;99.90
43607;DHT22;29197;44.788;10.366;2023-02-28T07:33:17;6.80;99.90
43607;DHT22;29197;44.788;10.366;2023-02-28T07:36:07;6.70;99.90
43607;DHT22;29197;44.788;10.366;2023-02-28T07:38:58;6.90;99.90
43607;DHT22;29197;44.788;10.366;2023-02-28T07:41:48;6.80;99.90
43607;DHT22;29197;44.788;10.366;2023-02-28T07:44:37;6.80;99.90
43607;DHT22;29197;44.788;10.366;2023-02-28T07:47:29;7.00;99.90
43607;DHT22;29197;44.788;10.366;2023-02-28T07:50:18;7.00;99.90
43607;DHT22;29197;44.788;10.366;2023-02-28T07:53:06;7.10;99.90
43607;DHT22;29197;44.788;10.366;2023-02-28T07:55:55;7.30;99.90
43607;DHT22;29197;44.788;10.366;2023-02-28T07:58:45;7.30;99.90
43607;DHT22;29197;44.788;10.366;2023-02-28T08:01:34;7.10;99.90
43607;DHT22;29197;44.788;10.366;2023-02-28T08:04:22;7.00;99.90
43607;DHT22;29197;44.788;10.366;2023-02-28T08:07:12;7.10;99.90
43607;DHT22;29197;44.788;10.366;2023-02-28T08:10:01;7.20;99.90
43607;DHT22;29197;44.788;10.366;2023-02-28T08:12:49;7.10;99.90
43607;DHT22;29197;44.788;10.366;2023-02-28T08:15:40;6.70;99.90
43607;DHT22;29197;44.788;10.366;2023-02-28T08:18:29;6.80;99.90
43607;DHT22;29197;44.788;10.366;2023-02-28T08:21:18;6.90;99.90
43607;DHT22;29197;44.788;10.366;2023-02-28T08:24:07;6.90;99.90
43607;DHT22;29197;44.788;10.366;2023-02-28T08:26:56;6.90;99.90
43607;DHT22;29197;44.788;10.366;2023-02-28T08:29:45;6.80;99.90
43607;DHT22;29197;44.788;10.366;2023-02-28T08:32:34;6.30;99.90
43607;DHT22;29197;44.788;10.366;2023-02-28T08:35:23;6.20;99.90
43607;DHT22;29197;44.788;10.366;2023-02-28T08:38:12;6.40;99.90
43607;DHT22;29197;44.788;10.366;2023-02-28T08:41:03;6.40;99.90
43607;DHT22;29197;44.788;10.366;2023-02-28T08:43:53;6.30;99.90
43607;DHT22;29197;44.788;10.366;2023-02-28T08:46:41;6.10;99.90
43607;DHT22;29197;44.788;10.366;2023-02-28T08:49:31;6.10;99.90
43607;DHT22;29197;44.788;10.366;2023-02-28T08:52:20;6.20;99.90
43607;DHT22;29197;44.788;10.366;2023-02-28T08:55:09;6.40;99.90
43607;DHT22;29197;44.788;10.366;2023-02-28T08:57:57;6.30;99.90
43607;DHT22;29197;44.788;10.366;2023-02-28T09:00:46;6.20;99.90
43607;DHT22;29197;44.788;10.366;2023-02-28T09:03:35;6.30;99.90
43607;DHT22;29197;44.788;10.366;2023-02-28T09:06:26;6.30;99.90
43607;DHT22;29197;44.788;10.366;2023-02-28T09:09:15;6.50;99.90
43607;DHT22;29197;44.788;10.366;2023-02-28T09:12:04;6.30;99.90
43607;DHT22;29197;44.788;10.366;2023-02-28T09:14:53;6.40;99.90
43607;DHT22;29197;44.788;10.366;2023-02-28T09:17:41;6.50;99.90
43607;DHT22;29197;44.788;10.366;2023-02-28T09:20:33;6.70;99.90
43607;DHT22;29197;44.788;10.366;2023-02-28T09:23:23;7.70;99.90
43607;DHT22;29197;44.788;10.366;2023-02-28T09:26:14;8.10;99.90
43607;DHT22;29197;44.788;10.366;2023-02-28T09:29:02;8.20;99.90
43607;DHT22;29197;44.788;10.366;2023-02-28T09:31:51;8.40;99.90
43607;DHT22;29197;44.788;10.366;2023-02-28T09:34:39;7.90;99.90
43607;DHT22;29197;44.788;10.366;2023-02-28T09:37:28;7.40;99.90
43607;DHT22;29197;44.788;10.366;2023-02-28T09:40:20;7.10;99.90
43607;DHT22;29197;44.788;10.366;2023-02-28T09:43:12;7.30;99.90
43607;DHT22;29197;44.788;10.366;2023-02-28T09:46:11;7.40;99.90
43607;DHT22;29197;44.788;10.366;2023-02-28T09:49:05;7.50;99.90
43607;DHT22;29197;44.788;10.366;2023-02-28T09:51:58;7.70;99.90
43607;DHT22;29197;44.788;10.366;2023-02-28T09:54:47;7.70;99.90
43607;DHT22;29197;44.788;10.366;2023-02-28T09:57:40;7.90;99.90
43607;DHT22;29197;44.788;10.366;2023-02-28T10:00:33;8.00;99.90
43607;DHT22;29197;44.788;10.366;2023-02-28T10:03:29;8.20;99.90
43607;DHT22;29197;44.788;10.366;2023-02-28T10:06:20;7.80;99.90
43607;DHT22;29197;44.788;10.366;2023-02-28T10:09:13;7.70;99.90
43607;DHT22;29197;44.788;10.366;2023-02-28T10:12:05;7.90;99.90
43607;DHT22;29197;44.788;10.366;2023-02-28T10:14:59;7.90;99.90
43607;DHT22;29197;44.788;10.366;2023-02-28T10:17:54;7.20;99.90
43607;DHT22;29197;44.788;10.366;2023-02-28T10:20:56;7.50;99.90
43607;DHT22;29197;44.788;10.366;2023-02-28T10:23:44;7.80;99.90
43607;DHT22;29197;44.788;10.366;2023-02-28T10:26:36;7.80;99.90
43607;DHT22;29197;44.788;10.366;2023-02-28T10:29:25;7.50;99.90
43607;DHT22;29197;44.788;10.366;2023-02-28T10:32:17;7.80;99.90
43607;DHT22;29197;44.788;10.366;2023-02-28T10:35:14;8.00;99.90
43607;DHT22;29197;44.788;10.366;2023-02-28T10:38:14;8.00;99.90
43607;DHT22;29197;44.788;10.366;2023-02-28T10:41:05;8.10;99.90
43607;DHT22;29197;44.788;10.366;2023-02-28T10:44:13;8.40;99.90
43607;DHT22;29197;44.788;10.366;2023-02-28T10:47:02;8.60;99.90
43607;DHT22;29197;44.788;10.366;2023-02-28T10:49:52;8.70;99.90
43607;DHT22;29197;44.788;10.366;2023-02-28T10:52:40;8.50;99.90
43607;DHT22;29197;44.788;10.366;2023-02-28T10:55:29;8.70;99.90
43607;DHT22;29197;44.788;10.366;2023-02-28T10:58:22;8.80;99.90
43607;DHT22;29197;44.788;10.366;2023-02-28T11:01:14;8.90;99.90
43607;DHT22;29197;44.788;10.366;2023-02-28T11:04:03;9.00;99.90
43607;DHT22;29197;44.788;10.366;2023-02-28T11:07:14;9.20;99.90
43607;DHT22;29197;44.788;10.366;2023-02-28T11:10:18;9.10;99.90
43607;DHT22;29197;44.788;10.366;2023-02-28T11:13:17;9.30;99.90
43607;DHT22;29197;44.788;10.366;2023-02-28T11:16:09;9.40;99.90
43607;DHT22;29197;44.788;10.366;2023-02-28T11:18:58;9.50;99.90
43607;DHT22;29197;44.788;10.366;2023-02-28T11:21:52;9.60;99.90
43607;DHT22;29197;44.788;10.366;2023-02-28T11:24:45;9.60;99.90
43607;DHT22;29197;44.788;10.366;2023-02-28T11:27:47;9.50;99.90
43607;DHT22;29197;44.788;10.366;2023-02-28T11:30:38;9.60;99.90
43607;DHT22;29197;44.788;10.366;2023-02-28T11:33:29;9.70;99.90
43607;DHT22;29197;44.788;10.366;2023-02-28T11:36:21;9.50;99.90
43607;DHT22;29197;44.788;10.366;2023-02-28T11:39:19;8.90;99.90
43607;DHT22;29197;44.788;10.366;2023-02-28T11:45:40;8.60;99.90
43607;DHT22;29197;44.788;10.366;2023-02-28T11:48:36;8.50;99.90
43607;DHT22;29197;44.788;10.366;2023-02-28T11:54:35;8.80;99.90
43607;DHT22;29197;44.788;10.366;2023-02-28T11:57:39;8.60;99.90
43607;DHT22;29197;44.788;10.366;2023-02-28T12:00:49;8.30;99.90
43607;DHT22;29197;44.788;10.366;2023-02-28T12:03:58;8.50;99.90
43607;DHT22;29197;44.788;10.366;2023-02-28T12:06:52;8.60;99.90
43607;DHT22;29197;44.788;10.366;2023-02-28T12:09:52;8.20;99.90
43607;DHT22;29197;44.788;10.366;2023-02-28T12:12:50;8.20;99.90
43607;DHT22;29197;44.788;10.366;2023-02-28T12:16:13;8.30;99.90
43607;DHT22;29197;44.788;10.366;2023-02-28T12:19:13;8.40;99.90
43607;DHT22;29197;44.788;10.366;2023-02-28T12:22:27;8.50;99.90
43607;DHT22;29197;44.788;10.366;2023-02-28T12:25:38;8.70;99.90
43607;DHT22;29197;44.788;10.366;2023-02-28T12:28:35;8.80;99.90
43607;DHT22;29197;44.788;10.366;2023-02-28T12:31:28;8.60;99.90
43607;DHT22;29197;44.788;10.366;2023-02-28T12:34:20;8.30;99.90
43607;DHT22;29197;44.788;10.366;2023-02-28T12:37:14;7.90;99.90
43607;DHT22;29197;44.788;10.366;2023-02-28T12:40:06;8.10;99.90
43607;DHT22;29197;44.788;10.366;2023-02-28T12:43:03;8.30;99.90
43607;DHT22;29197;44.788;10.366;2023-02-28T12:45:56;8.40;99.90
43607;DHT22;29197;44.788;10.366;2023-02-28T12:48:50;8.70;99.90
43607;DHT22;29197;44.788;10.366;2023-02-28T12:51:41;8.90;99.90
43607;DHT22;29197;44.788;10.366;2023-02-28T12:54:35;9.30;99.90
43607;DHT22;29197;44.788;10.366;2023-02-28T12:57:28;9.20;99.90
43607;DHT22;29197;44.788;10.366;2023-02-28T13:00:23;9.60;99.90
43607;DHT22;29197;44.788;10.366;2023-02-28T13:03:39;10.10;99.90
43607;DHT22;29197;44.788;10.366;2023-02-28T13:06:45;10.30;99.90
43607;DHT22;29197;44.788;10.366;2023-02-28T13:09:37;10.30;99.90
43607;DHT22;29197;44.788;10.366;2023-02-28T13:12:26;10.20;99.90
43607;DHT22;29197;44.788;10.366;2023-02-28T13:15:18;10.50;99.90
43607;DHT22;29197;44.788;10.366;2023-02-28T13:18:30;10.80;99.90
43607;DHT22;29197;44.788;10.366;2023-02-28T13:21:25;11.00;99.90
43607;DHT22;29197;44.788;10.366;2023-02-28T13:24:41;11.50;99.90
43607;DHT22;29197;44.788;10.366;2023-02-28T13:27:37;11.30;99.90
43607;DHT22;29197;44.788;10.366;2023-02-28T13:31:05;11.20;99.90
43607;DHT22;29197;44.788;10.366;2023-02-28T13:34:14;11.00;99.90
43607;DHT22;29197;44.788;10.366;2023-02-28T13:40:29;9.90;99.90
43607;DHT22;29197;44.788;10.366;2023-02-28T13:44:00;9.40;99.90
43607;DHT22;29197;44.788;10.366;2023-02-28T13:47:20;9.50;99.90
43607;DHT22;29197;44.788;10.366;2023-02-28T13:50:22;9.70;99.90
43607;DHT22;29197;44.788;10.366;2023-02-28T13:53:46;9.70;99.90
43607;DHT22;29197;44.788;10.366;2023-02-28T13:56:45;9.80;99.90
43607;DHT22;29197;44.788;10.366;2023-02-28T13:59:43;9.80;99.90
43607;DHT22;29197;44.788;10.366;2023-02-28T14:03:03;9.90;99.90
43607;DHT22;29197;44.788;10.366;2023-02-28T14:06:18;9.50;99.90
43607;DHT22;29197;44.788;10.366;2023-02-28T14:09:19;9.60;99.90
43607;DHT22;29197;44.788;10.366;2023-02-28T14:18:41;9.50;99.90
43607;DHT22;29197;44.788;10.366;2023-02-28T14:21:33;9.70;99.90
43607;DHT22;29197;44.788;10.366;2023-02-28T14:27:37;9.10;99.90
43607;DHT22;29197;44.788;10.366;2023-02-28T14:30:56;8.70;99.90
43607;DHT22;29197;44.788;10.366;2023-02-28T14:34:01;8.90;99.90
43607;DHT22;29197;44.788;10.366;2023-02-28T14:36:54;9.10;99.90
43607;DHT22;29197;44.788;10.366;2023-02-28T14:39:46;8.80;99.90
43607;DHT22;29197;44.788;10.366;2023-02-28T14:42:37;8.90;99.90
43607;DHT22;29197;44.788;10.366;2023-02-28T14:45:31;9.00;99.90
43607;DHT22;29197;44.788;10.366;2023-02-28T14:48:20;9.00;99.90
43607;DHT22;29197;44.788;10.366;2023-02-28T14:51:13;9.00;99.90
43607;DHT22;29197;44.788;10.366;2023-02-28T14:54:13;9.00;99.90
43607;DHT22;29197;44.788;10.366;2023-02-28T14:57:03;8.70;99.90
43607;DHT22;29197;44.788;10.366;2023-02-28T15:00:00;9.00;99.90
43607;DHT22;29197;44.788;10.366;2023-02-28T15:02:51;9.20;99.90
43607;DHT22;29197;44.788;10.366;2023-02-28T15:05:40;9.30;99.90
43607;DHT22;29197;44.788;10.366;2023-02-28T15:08:29;9.70;99.90
43607;DHT22;29197;44.788;10.366;2023-02-28T15:11:23;9.50;99.90
43607;DHT22;29197;44.788;10.366;2023-02-28T15:14:17;9.70;99.90
43607;DHT22;29197;44.788;10.366;2023-02-28T15:17:16;9.40;99.90
43607;DHT22;29197;44.788;10.366;2023-02-28T15:20:11;9.40;99.90
43607;DHT22;29197;44.788;10.366;2023-02-28T15:23:02;9.10;99.90
43607;DHT22;29197;44.788;10.366;2023-02-28T15:25:51;9.10;99.90
43607;DHT22;29197;44.788;10.366;2023-02-28T15:28:42;9.10;99.90
43607;DHT22;29197;44.788;10.366;2023-02-28T15:31:33;9.40;99.90
43607;DHT22;29197;44.788;10.366;2023-02-28T15:34:43;9.20;99.90
43607;DHT22;29197;44.788;10.366;2023-02-28T15:37:47;9.20;99.90
43607;DHT22;29197;44.788;10.366;2023-02-28T15:40:37;9.10;99.90
43607;DHT22;29197;44.788;10.366;2023-02-28T15:43:28;9.10;99.90
43607;DHT22;29197;44.788;10.366;2023-02-28T15:46:19;8.90;99.90
43607;DHT22;29197;44.788;10.366;2023-02-28T15:49:18;8.90;99.90
43607;DHT22;29197;44.788;10.366;2023-02-28T15:52:12;8.80;99.90
43607;DHT22;29197;44.788;10.366;2023-02-28T15:55:09;8.60;99.90
43607;DHT22;29197;44.788;10.366;2023-02-28T15:58:01;8.60;99.90
43607;DHT22;29197;44.788;10.366;2023-02-28T16:01:04;8.30;99.90
43607;DHT22;29197;44.788;10.366;2023-02-28T16:03:58;7.90;99.90
43607;DHT22;29197;44.788;10.366;2023-02-28T16:07:00;7.90;99.90
43607;DHT22;29197;44.788;10.366;2023-02-28T16:09:49;8.00;99.90
43607;DHT22;29197;44.788;10.366;2023-02-28T16:12:39;7.80;99.90
43607;DHT22;29197;44.788;10.366;2023-02-28T16:15:29;7.50;99.90
43607;DHT22;29197;44.788;10.366;2023-02-28T16:18:19;7.60;99.90
43607;DHT22;29197;44.788;10.366;2023-02-28T16:21:09;7.60;99.90
43607;DHT22;29197;44.788;10.366;2023-02-28T16:23:58;7.70;99.90
43607;DHT22;29197;44.788;10.366;2023-02-28T16:26:48;7.70;99.90
43607;DHT22;29197;44.788;10.366;2023-02-28T16:29:38;7.70;99.90
43607;DHT22;29197;44.788;10.366;2023-02-28T16:32:27;7.80;99.90
43607;DHT22;29197;44.788;10.366;2023-02-28T16:35:17;8.00;99.90
43607;DHT22;29197;44.788;10.366;2023-02-28T16:38:07;8.10;99.90
43607;DHT22;29197;44.788;10.366;2023-02-28T16:40:59;8.00;99.90
43607;DHT22;29197;44.788;10.366;2023-02-28T16:43:49;8.60;99.90
43607;DHT22;29197;44.788;10.366;2023-02-28T16:46:38;8.10;99.90
43607;DHT22;29197;44.788;10.366;2023-02-28T16:49:26;7.70;99.90
43607;DHT22;29197;44.788;10.366;2023-02-28T16:52:15;7.70;99.90
43607;DHT22;29197;44.788;10.366;2023-02-28T16:55:06;7.80;99.90
43607;DHT22;29197;44.788;10.366;2023-02-28T16:57:56;7.70;99.90
43607;DHT22;29197;44.788;10.366;2023-02-28T17:00:45;8.00;99.90
43607;DHT22;29197;44.788;10.366;2023-02-28T17:03:34;8.00;99.90
43607;DHT22;29197;44.788;10.366;2023-02-28T17:06:25;7.80;99.90
43607;DHT22;29197;44.788;10.366;2023-02-28T17:09:17;7.80;99.90
43607;DHT22;29197;44.788;10.366;2023-02-28T17:12:09;8.10;99.90
43607;DHT22;29197;44.788;10.366;2023-02-28T17:14:59;7.90;99.90
43607;DHT22;29197;44.788;10.366;2023-02-28T17:17:47;7.90;99.90
43607;DHT22;29197;44.788;10.366;2023-02-28T17:20:36;7.70;99.90
43607;DHT22;29197;44.788;10.366;2023-02-28T17:23:25;7.90;99.90
43607;DHT22;29197;44.788;10.366;2023-02-28T17:26:14;7.60;99.90
43607;DHT22;29197;44.788;10.366;2023-02-28T17:29:13;7.50;99.90
43607;DHT22;29197;44.788;10.366;2023-02-28T17:32:02;7.70;99.90
43607;DHT22;29197;44.788;10.366;2023-02-28T17:35:04;7.90;99.90
43607;DHT22;29197;44.788;10.366;2023-02-28T17:37:53;7.80;99.90
43607;DHT22;29197;44.788;10.366;2023-02-28T17:40:41;8.00;99.90
43607;DHT22;29197;44.788;10.366;2023-02-28T17:43:30;8.20;99.90
43607;DHT22;29197;44.788;10.366;2023-02-28T17:46:21;8.10;99.90
43607;DHT22;29197;44.788;10.366;2023-02-28T17:49:10;8.30;99.90
43607;DHT22;29197;44.788;10.366;2023-02-28T17:51:59;8.30;99.90
43607;DHT22;29197;44.788;10.366;2023-02-28T17:54:47;8.20;99.90
43607;DHT22;29197;44.788;10.366;2023-02-28T17:57:36;8.40;99.90
43607;DHT22;29197;44.788;10.366;2023-02-28T18:00:24;8.40;99.90
43607;DHT22;29197;44.788;10.366;2023-02-28T18:03:14;8.30;99.90
43607;DHT22;29197;44.788;10.366;2023-02-28T18:06:03;8.00;99.90
43607;DHT22;29197;44.788;10.366;2023-02-28T18:08:52;7.90;99.90
43607;DHT22;29197;44.788;10.366;2023-02-28T18:11:41;8.20;99.90
43607;DHT22;29197;44.788;10.366;2023-02-28T18:14:31;8.40;99.90
43607;DHT22;29197;44.788;10.366;2023-02-28T18:17:20;8.50;99.90
43607;DHT22;29197;44.788;10.366;2023-02-28T18:20:11;8.60;99.90
43607;DHT22;29197;44.788;10.366;2023-02-28T18:22:59;8.60;99.90
43607;DHT22;29197;44.788;10.366;2023-02-28T18:25:48;8.70;99.90
43607;DHT22;29197;44.788;10.366;2023-02-28T18:28:36;8.80;99.90
43607;DHT22;29197;44.788;10.366;2023-02-28T18:31:27;8.80;99.90
43607;DHT22;29197;44.788;10.366;2023-02-28T18:34:15;9.10;99.90
43607;DHT22;29197;44.788;10.366;2023-02-28T18:37:05;8.30;99.90
43607;DHT22;29197;44.788;10.366;2023-02-28T18:39:53;8.60;99.90
43607;DHT22;29197;44.788;10.366;2023-02-28T18:42:42;8.70;99.90
43607;DHT22;29197;44.788;10.366;2023-02-28T18:45:30;8.70;99.90